sensor_id;sensor_type;location;lat;lon;timestamp;pressure;altitude;pressure_sealevel;temperature;humidity
4767;BME280;2397;53.576;9.746;2023-04-24T00:00:46;99994.91;;;13.34;81.05
4767;BME280;2397;53.576;9.746;2023-04-24T00:03:13;99991.44;;;13.33;81.23
4767;BME280;2397;53.576;9.746;2023-04-24T00:05:40;99991.44;;;13.33;81.51
4767;BME280;2397;53.576;9.746;2023-04-24T00:08:07;99995.16;;;13.39;80.88
4767;BME280;2397;53.576;9.746;2023-04-24T00:10:34;99984.31;;;13.34;80.55
4767;BME280;2397;53.576;9.746;2023-04-24T00:13:00;99984.81;;;13.23;81.58
4767;BME280;2397;53.576;9.746;2023-04-24T00:15:27;99981.41;;;13.29;81.03
4767;BME280;2397;53.576;9.746;2023-04-24T00:17:53;99965.22;;;13.24;81.25
4767;BME280;2397;53.576;9.746;2023-04-24T00:20:21;99968.19;;;13.14;82.00
4767;BME280;2397;53.576;9.746;2023-04-24T00:22:47;99969.31;;;13.05;82.05
4767;BME280;2397;53.576;9.746;2023-04-24T00:25:14;99968.28;;;12.92;82.59
4767;BME280;2397;53.576;9.746;2023-04-24T00:27:40;99956.25;;;13.04;82.54
4767;BME280;2397;53.576;9.746;2023-04-24T00:30:07;99951.69;;;12.98;82.36
4767;BME280;2397;53.576;9.746;2023-04-24T00:32:34;99943.09;;;12.96;82.42
4767;BME280;2397;53.576;9.746;2023-04-24T00:35:01;99946.81;;;12.87;82.59
4767;BME280;2397;53.576;9.746;2023-04-24T00:37:28;99937.44;;;12.70;83.12
4767;BME280;2397;53.576;9.746;2023-04-24T00:39:55;99939.81;;;12.65;83.54
4767;BME280;2397;53.576;9.746;2023-04-24T00:42:22;99934.25;;;12.60;84.06
4767;BME280;2397;53.576;9.746;2023-04-24T00:44:49;99934.06;;;12.61;83.58
4767;BME280;2397;53.576;9.746;2023-04-24T00:47:16;99927.84;;;12.69;83.34
4767;BME280;2397;53.576;9.746;2023-04-24T00:49:45;99933.78;;;12.71;83.29
4767;BME280;2397;53.576;9.746;2023-04-24T00:52:11;99938.91;;;12.58;83.21
4767;BME280;2397;53.576;9.746;2023-04-24T00:54:38;99934.00;;;12.55;83.17
4767;BME280;2397;53.576;9.746;2023-04-24T00:57:05;99936.63;;;12.55;83.21
4767;BME280;2397;53.576;9.746;2023-04-24T00:59:32;99931.25;;;12.63;82.98
4767;BME280;2397;53.576;9.746;2023-04-24T01:01:59;99931.06;;;12.50;83.19
4767;BME280;2397;53.576;9.746;2023-04-24T01:04:26;99940.63;;;12.36;83.37
4767;BME280;2397;53.576;9.746;2023-04-24T01:06:54;99937.53;;;12.33;83.60
4767;BME280;2397;53.576;9.746;2023-04-24T01:09:23;99935.16;;;12.23;83.69
4767;BME280;2397;53.576;9.746;2023-04-24T01:11:50;99938.34;;;12.19;83.59
4767;BME280;2397;53.576;9.746;2023-04-24T01:14:17;99936.81;;;12.24;83.60
4767;BME280;2397;53.576;9.746;2023-04-24T01:16:43;99940.53;;;12.30;83.39
4767;BME280;2397;53.576;9.746;2023-04-24T01:19:10;99936.53;;;12.19;83.03
4767;BME280;2397;53.576;9.746;2023-04-24T01:21:38;99927.94;;;12.17;82.91
4767;BME280;2397;53.576;9.746;2023-04-24T01:24:05;99928.69;;;12.26;82.81
4767;BME280;2397;53.576;9.746;2023-04-24T01:26:32;99930.22;;;12.20;83.33
4767;BME280;2397;53.576;9.746;2023-04-24T01:28:59;99930.41;;;12.19;82.88
4767;BME280;2397;53.576;9.746;2023-04-24T01:31:25;99927.28;;;12.15;82.97
4767;BME280;2397;53.576;9.746;2023-04-24T01:33:53;99931.41;;;12.18;83.45
4767;BME280;2397;53.576;9.746;2023-04-24T01:36:21;99925.66;;;12.14;83.05
4767;BME280;2397;53.576;9.746;2023-04-24T01:38:50;99925.22;;;12.11;82.80
4767;BME280;2397;53.576;9.746;2023-04-24T01:41:17;99922.22;;;12.14;83.30
4767;BME280;2397;53.576;9.746;2023-04-24T01:43:44;99920.34;;;12.14;82.99
4767;BME280;2397;53.576;9.746;2023-04-24T01:46:10;99918.06;;;12.11;82.88
4767;BME280;2397;53.576;9.746;2023-04-24T01:48:37;99916.00;;;12.07;83.19
4767;BME280;2397;53.576;9.746;2023-04-24T01:51:04;99922.16;;;11.99;83.24
4767;BME280;2397;53.576;9.746;2023-04-24T01:53:31;99931.19;;;12.05;83.30
4767;BME280;2397;53.576;9.746;2023-04-24T01:55:57;99923.94;;;12.07;83.69
4767;BME280;2397;53.576;9.746;2023-04-24T01:58:24;99922.75;;;12.09;83.35
4767;BME280;2397;53.576;9.746;2023-04-24T02:00:52;99919.34;;;12.01;83.48
4767;BME280;2397;53.576;9.746;2023-04-24T02:03:19;99919.91;;;12.11;82.41
4767;BME280;2397;53.576;9.746;2023-04-24T02:05:47;99912.06;;;12.03;82.00
4767;BME280;2397;53.576;9.746;2023-04-24T02:08:14;99909.13;;;11.98;81.91
4767;BME280;2397;53.576;9.746;2023-04-24T02:10:40;99911.22;;;12.02;81.61
4767;BME280;2397;53.576;9.746;2023-04-24T02:13:07;99918.91;;;11.97;80.72
4767;BME280;2397;53.576;9.746;2023-04-24T02:15:34;99911.50;;;11.93;81.95
4767;BME280;2397;53.576;9.746;2023-04-24T02:18:02;99912.84;;;11.89;81.17
4767;BME280;2397;53.576;9.746;2023-04-24T02:20:30;99910.28;;;11.81;81.10
4767;BME280;2397;53.576;9.746;2023-04-24T02:22:58;99912.97;;;11.73;80.90
4767;BME280;2397;53.576;9.746;2023-04-24T02:25:24;99899.59;;;11.74;80.93
4767;BME280;2397;53.576;9.746;2023-04-24T02:27:54;99901.44;;;11.74;80.68
4767;BME280;2397;53.576;9.746;2023-04-24T02:30:20;99898.78;;;11.74;80.24
4767;BME280;2397;53.576;9.746;2023-04-24T02:32:47;99899.03;;;11.64;80.20
4767;BME280;2397;53.576;9.746;2023-04-24T02:35:14;99902.59;;;11.71;80.50
4767;BME280;2397;53.576;9.746;2023-04-24T02:37:41;99908.81;;;11.56;80.41
4767;BME280;2397;53.576;9.746;2023-04-24T02:40:11;99900.34;;;11.60;80.14
4767;BME280;2397;53.576;9.746;2023-04-24T02:42:38;99898.59;;;11.53;80.42
4767;BME280;2397;53.576;9.746;2023-04-24T02:45:05;99897.75;;;11.52;80.08
4767;BME280;2397;53.576;9.746;2023-04-24T02:47:31;99892.19;;;11.47;79.92
4767;BME280;2397;53.576;9.746;2023-04-24T02:49:59;99900.94;;;11.48;79.90
4767;BME280;2397;53.576;9.746;2023-04-24T02:52:25;99902.47;;;11.42;80.19
4767;BME280;2397;53.576;9.746;2023-04-24T02:54:52;99895.06;;;11.38;80.67
4767;BME280;2397;53.576;9.746;2023-04-24T02:57:20;99895.06;;;11.38;80.14
4767;BME280;2397;53.576;9.746;2023-04-24T02:59:47;99892.50;;;11.30;80.89
4767;BME280;2397;53.576;9.746;2023-04-24T03:02:13;99902.13;;;11.23;81.22
4767;BME280;2397;53.576;9.746;2023-04-24T03:04:40;99886.97;;;11.17;81.62
4767;BME280;2397;53.576;9.746;2023-04-24T03:07:09;99894.88;;;11.17;81.80
4767;BME280;2397;53.576;9.746;2023-04-24T03:09:36;99895.72;;;11.17;81.82
4767;BME280;2397;53.576;9.746;2023-04-24T03:12:02;99905.16;;;11.12;82.40
4767;BME280;2397;53.576;9.746;2023-04-24T03:14:29;99905.31;;;11.10;82.65
4767;BME280;2397;53.576;9.746;2023-04-24T03:16:57;99903.53;;;11.11;82.66
4767;BME280;2397;53.576;9.746;2023-04-24T03:19:24;99907.63;;;11.13;82.32
4767;BME280;2397;53.576;9.746;2023-04-24T03:22:02;99904.16;;;11.13;82.65
4767;BME280;2397;53.576;9.746;2023-04-24T03:24:29;99899.22;;;11.10;82.40
4767;BME280;2397;53.576;9.746;2023-04-24T03:26:57;99906.69;;;11.06;82.04
4767;BME280;2397;53.576;9.746;2023-04-24T03:29:41;99903.53;;;11.03;82.70
4767;BME280;2397;53.576;9.746;2023-04-24T03:32:08;99905.84;;;11.06;82.14
4767;BME280;2397;53.576;9.746;2023-04-24T03:34:36;99903.19;;;11.06;81.97
4767;BME280;2397;53.576;9.746;2023-04-24T03:37:03;99904.53;;;11.02;82.27
4767;BME280;2397;53.576;9.746;2023-04-24T03:39:31;99901.06;;;11.01;82.27
4767;BME280;2397;53.576;9.746;2023-04-24T03:41:57;99904.09;;;10.98;82.23
4767;BME280;2397;53.576;9.746;2023-04-24T03:44:35;99900.16;;;10.94;82.27
4767;BME280;2397;53.576;9.746;2023-04-24T03:47:02;99900.31;;;10.93;81.87
4767;BME280;2397;53.576;9.746;2023-04-24T03:49:30;99900.44;;;10.99;81.17
4767;BME280;2397;53.576;9.746;2023-04-24T03:51:57;99899.97;;;10.96;80.63
4767;BME280;2397;53.576;9.746;2023-04-24T03:54:25;99901.28;;;11.00;80.14
4767;BME280;2397;53.576;9.746;2023-04-24T03:56:53;99897.63;;;11.01;79.49
4767;BME280;2397;53.576;9.746;2023-04-24T03:59:19;99891.06;;;10.97;78.89
4767;BME280;2397;53.576;9.746;2023-04-24T04:01:57;99897.13;;;10.97;79.23
4767;BME280;2397;53.576;9.746;2023-04-24T04:04:24;99888.47;;;10.89;78.85
4767;BME280;2397;53.576;9.746;2023-04-24T04:06:50;99885.66;;;10.90;77.86
4767;BME280;2397;53.576;9.746;2023-04-24T04:09:17;99886.97;;;10.86;78.51
4767;BME280;2397;53.576;9.746;2023-04-24T04:11:44;99877.91;;;10.89;77.80
4767;BME280;2397;53.576;9.746;2023-04-24T04:14:11;99882.69;;;10.85;77.71
4767;BME280;2397;53.576;9.746;2023-04-24T04:16:40;99883.22;;;10.81;78.19
4767;BME280;2397;53.576;9.746;2023-04-24T04:19:07;99889.44;;;10.88;77.68
4767;BME280;2397;53.576;9.746;2023-04-24T04:21:35;99886.13;;;10.94;77.67
4767;BME280;2397;53.576;9.746;2023-04-24T04:24:11;99890.06;;;10.98;76.54
4767;BME280;2397;53.576;9.746;2023-04-24T04:26:42;99887.28;;;10.91;77.51
4767;BME280;2397;53.576;9.746;2023-04-24T04:29:19;99880.00;;;10.93;76.66
4767;BME280;2397;53.576;9.746;2023-04-24T04:31:49;99888.75;;;10.94;76.24
4767;BME280;2397;53.576;9.746;2023-04-24T04:34:16;99889.88;;;10.99;76.14
4767;BME280;2397;53.576;9.746;2023-04-24T04:36:43;99895.28;;;11.06;76.31
4767;BME280;2397;53.576;9.746;2023-04-24T04:39:21;99907.69;;;11.05;76.07
4767;BME280;2397;53.576;9.746;2023-04-24T04:41:56;99906.50;;;11.08;75.40
4767;BME280;2397;53.576;9.746;2023-04-24T04:44:27;99903.97;;;11.14;74.68
4767;BME280;2397;53.576;9.746;2023-04-24T04:46:56;99909.59;;;11.11;74.68
4767;BME280;2397;53.576;9.746;2023-04-24T04:49:29;99896.22;;;11.13;73.97
4767;BME280;2397;53.576;9.746;2023-04-24T04:51:57;99903.88;;;11.08;74.53
4767;BME280;2397;53.576;9.746;2023-04-24T04:54:25;99907.97;;;11.10;73.33
4767;BME280;2397;53.576;9.746;2023-04-24T04:56:52;99899.88;;;11.12;73.75
4767;BME280;2397;53.576;9.746;2023-04-24T04:59:18;99902.47;;;11.20;73.75
4767;BME280;2397;53.576;9.746;2023-04-24T05:01:47;99902.47;;;11.20;73.07
4767;BME280;2397;53.576;9.746;2023-04-24T05:04:15;99902.47;;;11.20;73.80
4767;BME280;2397;53.576;9.746;2023-04-24T05:06:43;99896.06;;;11.14;73.44
4767;BME280;2397;53.576;9.746;2023-04-24T05:09:09;99902.28;;;11.21;72.84
4767;BME280;2397;53.576;9.746;2023-04-24T05:11:46;99899.13;;;11.26;73.43
4767;BME280;2397;53.576;9.746;2023-04-24T05:14:12;99894.06;;;11.39;72.79
4767;BME280;2397;53.576;9.746;2023-04-24T05:16:41;99894.91;;;11.39;72.69
4767;BME280;2397;53.576;9.746;2023-04-24T05:19:09;99893.97;;;11.55;71.90
4767;BME280;2397;53.576;9.746;2023-04-24T05:21:39;99894.00;;;11.47;72.64
4767;BME280;2397;53.576;9.746;2023-04-24T05:24:07;99897.56;;;11.54;71.98
4767;BME280;2397;53.576;9.746;2023-04-24T05:27:03;99901.06;;;11.54;71.83
4767;BME280;2397;53.576;9.746;2023-04-24T05:29:37;99907.97;;;11.55;71.36
4767;BME280;2397;53.576;9.746;2023-04-24T05:32:05;99901.34;;;11.59;71.99
4767;BME280;2397;53.576;9.746;2023-04-24T05:34:32;99905.47;;;11.62;71.42
4767;BME280;2397;53.576;9.746;2023-04-24T05:36:58;99901.44;;;11.74;70.71
4767;BME280;2397;53.576;9.746;2023-04-24T05:39:25;99910.63;;;11.78;70.26
4767;BME280;2397;53.576;9.746;2023-04-24T05:41:53;99904.25;;;11.87;70.17
4767;BME280;2397;53.576;9.746;2023-04-24T05:44:19;99896.25;;;11.95;70.20
4767;BME280;2397;53.576;9.746;2023-04-24T05:46:46;99903.47;;;12.01;69.96
4767;BME280;2397;53.576;9.746;2023-04-24T05:49:13;99895.94;;;12.12;69.40
4767;BME280;2397;53.576;9.746;2023-04-24T05:51:40;99897.66;;;12.05;68.78
4767;BME280;2397;53.576;9.746;2023-04-24T05:54:07;99896.56;;;12.14;68.58
4767;BME280;2397;53.576;9.746;2023-04-24T05:56:34;99901.31;;;12.19;68.43
4767;BME280;2397;53.576;9.746;2023-04-24T05:59:03;99904.03;;;12.25;68.14
4767;BME280;2397;53.576;9.746;2023-04-24T06:01:30;99904.56;;;12.21;67.33
4767;BME280;2397;53.576;9.746;2023-04-24T06:04:05;99907.88;;;12.23;68.49
4767;BME280;2397;53.576;9.746;2023-04-24T06:06:34;99907.16;;;12.29;67.85
4767;BME280;2397;53.576;9.746;2023-04-24T06:09:01;99901.47;;;12.32;68.11
4767;BME280;2397;53.576;9.746;2023-04-24T06:11:29;99888.25;;;12.46;67.22
4767;BME280;2397;53.576;9.746;2023-04-24T06:13:56;99900.31;;;12.34;67.11
4767;BME280;2397;53.576;9.746;2023-04-24T06:16:37;99904.16;;;12.46;68.16
4767;BME280;2397;53.576;9.746;2023-04-24T06:19:15;99900.84;;;12.44;66.53
4767;BME280;2397;53.576;9.746;2023-04-24T06:21:41;99911.72;;;12.49;66.19
4767;BME280;2397;53.576;9.746;2023-04-24T06:24:08;99907.22;;;12.50;66.81
4767;BME280;2397;53.576;9.746;2023-04-24T06:26:35;99897.84;;;12.62;66.38
4767;BME280;2397;53.576;9.746;2023-04-24T06:29:01;99895.63;;;12.65;65.24
4767;BME280;2397;53.576;9.746;2023-04-24T06:31:28;99900.69;;;12.60;65.37
4767;BME280;2397;53.576;9.746;2023-04-24T06:33:55;99904.00;;;12.69;66.28
4767;BME280;2397;53.576;9.746;2023-04-24T06:36:21;99904.66;;;12.71;66.17
4767;BME280;2397;53.576;9.746;2023-04-24T06:38:48;99906.66;;;12.83;65.49
4767;BME280;2397;53.576;9.746;2023-04-24T06:41:14;99917.06;;;12.85;65.29
4767;BME280;2397;53.576;9.746;2023-04-24T06:43:41;99902.94;;;12.78;65.53
4767;BME280;2397;53.576;9.746;2023-04-24T06:46:07;99903.28;;;12.75;65.11
4767;BME280;2397;53.576;9.746;2023-04-24T06:48:34;99915.38;;;12.63;66.29
4767;BME280;2397;53.576;9.746;2023-04-24T06:51:01;99909.72;;;12.66;65.96
4767;BME280;2397;53.576;9.746;2023-04-24T06:53:27;99915.81;;;12.66;65.51
4767;BME280;2397;53.576;9.746;2023-04-24T06:55:54;99916.25;;;12.84;66.34
4767;BME280;2397;53.576;9.746;2023-04-24T06:58:21;99918.44;;;12.81;64.53
4767;BME280;2397;53.576;9.746;2023-04-24T07:00:47;99918.97;;;12.91;65.00
4767;BME280;2397;53.576;9.746;2023-04-24T07:03:14;99924.53;;;12.81;65.45
4767;BME280;2397;53.576;9.746;2023-04-24T07:05:41;99932.06;;;12.78;65.48
4767;BME280;2397;53.576;9.746;2023-04-24T07:08:07;99923.19;;;12.71;65.25
4767;BME280;2397;53.576;9.746;2023-04-24T07:10:37;99912.53;;;12.64;64.83
4767;BME280;2397;53.576;9.746;2023-04-24T07:13:04;99920.09;;;12.53;64.76
4767;BME280;2397;53.576;9.746;2023-04-24T07:15:30;99916.09;;;12.57;64.57
4767;BME280;2397;53.576;9.746;2023-04-24T07:17:58;99914.16;;;12.65;65.07
4767;BME280;2397;53.576;9.746;2023-04-24T07:20:24;99910.78;;;12.71;64.43
4767;BME280;2397;53.576;9.746;2023-04-24T07:22:52;99913.78;;;12.83;64.69
4767;BME280;2397;53.576;9.746;2023-04-24T07:25:20;99921.16;;;13.02;64.38
4767;BME280;2397;53.576;9.746;2023-04-24T07:27:46;99924.63;;;13.17;63.85
4767;BME280;2397;53.576;9.746;2023-04-24T07:30:14;99929.41;;;13.28;64.00
4767;BME280;2397;53.576;9.746;2023-04-24T07:32:41;99931.06;;;13.29;64.05
4767;BME280;2397;53.576;9.746;2023-04-24T07:35:08;99940.22;;;13.26;63.90
4767;BME280;2397;53.576;9.746;2023-04-24T07:37:36;99939.50;;;13.18;63.70
4767;BME280;2397;53.576;9.746;2023-04-24T07:40:03;99932.31;;;12.83;63.36
4767;BME280;2397;53.576;9.746;2023-04-24T07:42:30;99942.44;;;12.94;64.97
4767;BME280;2397;53.576;9.746;2023-04-24T07:45:00;99950.81;;;13.26;64.02
4767;BME280;2397;53.576;9.746;2023-04-24T07:47:27;99942.72;;;12.84;63.69
4767;BME280;2397;53.576;9.746;2023-04-24T07:49:54;99946.09;;;12.93;64.44
4767;BME280;2397;53.576;9.746;2023-04-24T07:52:21;99950.31;;;12.87;64.75
4767;BME280;2397;53.576;9.746;2023-04-24T07:54:47;99949.47;;;12.87;64.41
4767;BME280;2397;53.576;9.746;2023-04-24T07:57:14;99961.53;;;12.75;64.62
4767;BME280;2397;53.576;9.746;2023-04-24T07:59:40;99977.34;;;12.68;64.68
4767;BME280;2397;53.576;9.746;2023-04-24T08:02:08;99974.88;;;12.67;64.58
4767;BME280;2397;53.576;9.746;2023-04-24T08:04:34;99969.03;;;12.57;64.97
4767;BME280;2397;53.576;9.746;2023-04-24T08:07:01;99970.97;;;12.63;64.14
4767;BME280;2397;53.576;9.746;2023-04-24T08:09:28;99974.25;;;12.79;63.28
4767;BME280;2397;53.576;9.746;2023-04-24T08:11:54;99982.91;;;12.88;62.27
4767;BME280;2397;53.576;9.746;2023-04-24T08:14:21;99978.97;;;12.69;61.93
4767;BME280;2397;53.576;9.746;2023-04-24T08:16:47;99981.28;;;12.72;62.15
4767;BME280;2397;53.576;9.746;2023-04-24T08:19:14;99969.59;;;12.67;62.54
4767;BME280;2397;53.576;9.746;2023-04-24T08:21:40;99981.09;;;12.74;62.68
4767;BME280;2397;53.576;9.746;2023-04-24T08:24:07;99980.16;;;12.96;61.95
4767;BME280;2397;53.576;9.746;2023-04-24T08:26:34;99988.56;;;12.85;62.04
4767;BME280;2397;53.576;9.746;2023-04-24T08:29:01;99983.28;;;12.85;61.75
4767;BME280;2397;53.576;9.746;2023-04-24T08:31:27;99986.09;;;12.69;62.46
4767;BME280;2397;53.576;9.746;2023-04-24T08:33:54;99989.84;;;12.60;62.62
4767;BME280;2397;53.576;9.746;2023-04-24T08:36:21;99986.47;;;12.66;62.96
4767;BME280;2397;53.576;9.746;2023-04-24T08:38:52;99980.88;;;12.61;63.23
4767;BME280;2397;53.576;9.746;2023-04-24T08:41:19;99990.75;;;12.67;64.43
4767;BME280;2397;53.576;9.746;2023-04-24T08:43:46;99992.94;;;12.63;64.08
4767;BME280;2397;53.576;9.746;2023-04-24T08:46:13;99991.78;;;12.66;64.15
4767;BME280;2397;53.576;9.746;2023-04-24T08:48:40;99987.84;;;12.62;64.03
4767;BME280;2397;53.576;9.746;2023-04-24T08:51:07;100004.34;;;12.64;64.28
4767;BME280;2397;53.576;9.746;2023-04-24T08:53:35;100000.16;;;12.69;63.57
4767;BME280;2397;53.576;9.746;2023-04-24T08:56:02;99993.50;;;12.73;63.26
4767;BME280;2397;53.576;9.746;2023-04-24T08:58:29;99992.13;;;12.63;64.19
4767;BME280;2397;53.576;9.746;2023-04-24T09:00:58;99989.84;;;12.74;63.53
4767;BME280;2397;53.576;9.746;2023-04-24T09:03:27;99990.94;;;12.80;64.08
4767;BME280;2397;53.576;9.746;2023-04-24T09:05:55;99996.31;;;12.72;64.60
4767;BME280;2397;53.576;9.746;2023-04-24T09:08:24;100000.63;;;12.73;65.37
4767;BME280;2397;53.576;9.746;2023-04-24T09:10:51;100002.09;;;12.75;65.41
4767;BME280;2397;53.576;9.746;2023-04-24T09:13:19;99999.25;;;12.77;64.87
4767;BME280;2397;53.576;9.746;2023-04-24T09:15:46;100005.66;;;12.82;64.33
4767;BME280;2397;53.576;9.746;2023-04-24T09:18:13;100006.75;;;12.88;65.20
4767;BME280;2397;53.576;9.746;2023-04-24T09:20:59;100006.25;;;13.28;64.19
4767;BME280;2397;53.576;9.746;2023-04-24T09:23:30;100011.72;;;13.41;64.15
4767;BME280;2397;53.576;9.746;2023-04-24T09:25:59;100008.22;;;13.40;62.40
4767;BME280;2397;53.576;9.746;2023-04-24T09:28:29;100013.84;;;13.31;62.71
4767;BME280;2397;53.576;9.746;2023-04-24T09:31:09;100007.94;;;13.00;61.64
4767;BME280;2397;53.576;9.746;2023-04-24T09:33:36;100022.25;;;12.91;62.86
4767;BME280;2397;53.576;9.746;2023-04-24T09:36:03;100006.56;;;12.89;63.20
4767;BME280;2397;53.576;9.746;2023-04-24T09:38:35;100018.16;;;12.88;63.24
4767;BME280;2397;53.576;9.746;2023-04-24T09:41:06;100022.09;;;12.78;63.66
4767;BME280;2397;53.576;9.746;2023-04-24T09:43:34;100021.72;;;12.81;63.49
4767;BME280;2397;53.576;9.746;2023-04-24T09:46:06;100020.91;;;12.66;64.53
4767;BME280;2397;53.576;9.746;2023-04-24T09:48:35;100029.81;;;12.65;64.20
4767;BME280;2397;53.576;9.746;2023-04-24T09:51:04;100034.56;;;12.55;65.74
4767;BME280;2397;53.576;9.746;2023-04-24T09:53:33;100028.19;;;12.64;64.71
4767;BME280;2397;53.576;9.746;2023-04-24T09:56:07;100028.09;;;12.72;64.68
4767;BME280;2397;53.576;9.746;2023-04-24T09:58:35;100030.59;;;13.02;65.28
4767;BME280;2397;53.576;9.746;2023-04-24T10:01:03;100024.00;;;13.27;63.32
4767;BME280;2397;53.576;9.746;2023-04-24T10:03:30;100035.97;;;13.23;62.18
4767;BME280;2397;53.576;9.746;2023-04-24T10:06:01;100024.00;;;13.27;63.02
4767;BME280;2397;53.576;9.746;2023-04-24T10:08:35;100034.41;;;13.29;62.82
4767;BME280;2397;53.576;9.746;2023-04-24T10:11:02;100037.63;;;13.10;62.38
4767;BME280;2397;53.576;9.746;2023-04-24T10:13:29;100037.16;;;12.92;63.59
4767;BME280;2397;53.576;9.746;2023-04-24T10:15:59;100027.78;;;13.04;62.39
4767;BME280;2397;53.576;9.746;2023-04-24T10:18:27;100030.56;;;13.31;62.37
4767;BME280;2397;53.576;9.746;2023-04-24T10:20:53;100035.03;;;13.45;61.72
4767;BME280;2397;53.576;9.746;2023-04-24T10:23:21;100031.59;;;13.30;61.28
4767;BME280;2397;53.576;9.746;2023-04-24T10:25:48;100038.25;;;13.12;62.29
4767;BME280;2397;53.576;9.746;2023-04-24T10:28:17;100034.31;;;13.22;63.25
4767;BME280;2397;53.576;9.746;2023-04-24T10:30:45;100026.06;;;13.46;62.89
4767;BME280;2397;53.576;9.746;2023-04-24T10:33:12;100043.53;;;13.41;61.78
4767;BME280;2397;53.576;9.746;2023-04-24T10:35:44;100033.66;;;13.35;61.79
4767;BME280;2397;53.576;9.746;2023-04-24T10:38:13;100036.44;;;13.12;62.12
4767;BME280;2397;53.576;9.746;2023-04-24T10:40:40;100039.19;;;13.19;62.09
4767;BME280;2397;53.576;9.746;2023-04-24T10:43:08;100034.09;;;13.03;61.71
4767;BME280;2397;53.576;9.746;2023-04-24T10:45:38;100039.09;;;12.98;62.20
4767;BME280;2397;53.576;9.746;2023-04-24T10:48:07;100033.13;;;12.96;62.13
4767;BME280;2397;53.576;9.746;2023-04-24T10:53:13;100029.19;;;12.77;63.64
4767;BME280;2397;53.576;9.746;2023-04-24T10:58:10;100046.63;;;12.72;63.27
4767;BME280;2397;53.576;9.746;2023-04-24T11:00:39;100049.38;;;12.64;62.94
4767;BME280;2397;53.576;9.746;2023-04-24T11:03:22;100055.50;;;12.64;63.27
4767;BME280;2397;53.576;9.746;2023-04-24T11:06:08;100054.47;;;12.65;63.21
4767;BME280;2397;53.576;9.746;2023-04-24T11:19:22;100062.88;;;12.69;62.95
4767;BME280;2397;53.576;9.746;2023-04-24T11:22:00;100056.25;;;12.73;62.80
4767;BME280;2397;53.576;9.746;2023-04-24T11:26:59;100054.00;;;12.99;63.09
4767;BME280;2397;53.576;9.746;2023-04-24T11:30:02;100049.88;;;13.11;61.95
4767;BME280;2397;53.576;9.746;2023-04-24T11:35:04;100062.91;;;12.83;60.57
4767;BME280;2397;53.576;9.746;2023-04-24T11:37:36;100050.22;;;12.93;61.05
4767;BME280;2397;53.576;9.746;2023-04-24T11:40:05;100050.13;;;13.16;61.62
4767;BME280;2397;53.576;9.746;2023-04-24T11:42:43;100050.03;;;13.38;61.54
4767;BME280;2397;53.576;9.746;2023-04-24T11:45:15;100055.63;;;13.29;60.16
4767;BME280;2397;53.576;9.746;2023-04-24T11:47:43;100060.19;;;13.20;59.75
4767;BME280;2397;53.576;9.746;2023-04-24T11:50:21;100059.16;;;12.92;59.13
4767;BME280;2397;53.576;9.746;2023-04-24T11:52:49;100052.75;;;12.87;60.43
4767;BME280;2397;53.576;9.746;2023-04-24T11:57:47;100068.25;;;13.12;59.43
4767;BME280;2397;53.576;9.746;2023-04-24T12:00:21;100063.75;;;12.98;59.10
4767;BME280;2397;53.576;9.746;2023-04-24T12:02:49;100063.41;;;13.01;60.13
4767;BME280;2397;53.576;9.746;2023-04-24T12:05:24;100065.50;;;13.06;60.20
4767;BME280;2397;53.576;9.746;2023-04-24T12:07:53;100062.75;;;13.14;60.19
4767;BME280;2397;53.576;9.746;2023-04-24T12:10:24;100067.31;;;13.20;59.23
4767;BME280;2397;53.576;9.746;2023-04-24T12:12:52;100061.34;;;13.32;58.88
4767;BME280;2397;53.576;9.746;2023-04-24T12:15:20;100063.00;;;13.33;57.86
4767;BME280;2397;53.576;9.746;2023-04-24T12:17:48;100063.38;;;13.16;58.95
4767;BME280;2397;53.576;9.746;2023-04-24T12:20:16;100060.13;;;13.14;59.03
4767;BME280;2397;53.576;9.746;2023-04-24T12:25:15;100075.03;;;12.78;59.40
4767;BME280;2397;53.576;9.746;2023-04-24T12:27:43;100065.56;;;12.83;59.72
4767;BME280;2397;53.576;9.746;2023-04-24T12:30:15;100076.50;;;12.80;60.36
4767;BME280;2397;53.576;9.746;2023-04-24T12:32:47;100078.31;;;12.80;60.73
4767;BME280;2397;53.576;9.746;2023-04-24T12:35:19;100077.47;;;12.65;61.08
4767;BME280;2397;53.576;9.746;2023-04-24T12:37:47;100074.28;;;12.69;61.69
4767;BME280;2397;53.576;9.746;2023-04-24T12:40:14;100084.69;;;12.56;62.77
4767;BME280;2397;53.576;9.746;2023-04-24T12:42:43;100091.78;;;12.41;63.61
4767;BME280;2397;53.576;9.746;2023-04-24T12:45:10;100098.00;;;12.26;66.21
4767;BME280;2397;53.576;9.746;2023-04-24T12:47:39;100099.13;;;12.09;68.88
4767;BME280;2397;53.576;9.746;2023-04-24T12:50:12;100102.16;;;11.98;69.56
4767;BME280;2397;53.576;9.746;2023-04-24T12:52:39;100098.91;;;11.88;71.37
4767;BME280;2397;53.576;9.746;2023-04-24T12:55:07;100101.31;;;11.75;71.65
4767;BME280;2397;53.576;9.746;2023-04-24T12:57:39;100109.31;;;11.67;71.76
4767;BME280;2397;53.576;9.746;2023-04-24T13:00:07;100108.41;;;11.44;72.59
4767;BME280;2397;53.576;9.746;2023-04-24T13:02:34;100108.78;;;11.25;73.61
4767;BME280;2397;53.576;9.746;2023-04-24T13:05:02;100110.44;;;11.18;74.54
4767;BME280;2397;53.576;9.746;2023-04-24T13:07:28;100108.16;;;11.15;75.21
4767;BME280;2397;53.576;9.746;2023-04-24T13:09:55;100106.34;;;11.15;75.92
4767;BME280;2397;53.576;9.746;2023-04-24T13:12:23;100106.19;;;11.09;77.06
4767;BME280;2397;53.576;9.746;2023-04-24T13:14:53;100109.16;;;11.06;78.29
4767;BME280;2397;53.576;9.746;2023-04-24T13:17:20;100104.53;;;11.16;77.95
4767;BME280;2397;53.576;9.746;2023-04-24T13:19:49;100099.03;;;11.25;77.24
4767;BME280;2397;53.576;9.746;2023-04-24T13:22:17;100097.66;;;11.37;77.03
4767;BME280;2397;53.576;9.746;2023-04-24T13:24:45;100094.97;;;11.45;75.77
4767;BME280;2397;53.576;9.746;2023-04-24T13:27:11;100096.03;;;11.36;75.81
4767;BME280;2397;53.576;9.746;2023-04-24T13:29:38;100093.50;;;11.43;75.54
4767;BME280;2397;53.576;9.746;2023-04-24T13:32:04;100095.19;;;11.44;76.15
4767;BME280;2397;53.576;9.746;2023-04-24T13:34:31;100089.53;;;11.47;74.90
4767;BME280;2397;53.576;9.746;2023-04-24T13:36:58;100091.16;;;11.56;74.97
4767;BME280;2397;53.576;9.746;2023-04-24T13:39:26;100089.81;;;11.60;74.03
4767;BME280;2397;53.576;9.746;2023-04-24T13:41:53;100087.66;;;11.63;73.68
4767;BME280;2397;53.576;9.746;2023-04-24T13:44:21;100087.16;;;11.68;73.93
4767;BME280;2397;53.576;9.746;2023-04-24T13:46:50;100091.38;;;11.77;73.58
4767;BME280;2397;53.576;9.746;2023-04-24T13:49:18;100087.66;;;11.94;72.56